NCAR-RAP Real-Time Weather Data

Output produced by METARs form (12 May 2021  12:19 UTC)
found at http://weather.rap.ucar.edu/surface/
 
KBOI 121153Z 13007KT 10SM CLR 08/M01 A3012 RMK AO2 SLP189 T00781011 10122 20078 53005
KBOI 121053Z 13010KT 10SM CLR 09/M01 A3011 RMK AO2 SLP185 T00941011
KBOI 120953Z 13007KT 10SM CLR 09/M01 A3010 RMK AO2 SLP181 T00941011
KBOI 120853Z 12007KT 10SM CLR 09/M01 A3010 RMK AO2 SLP183 T00941006 50002
KBOI 120753Z 12006KT 10SM CLR 10/M01 A3010 RMK AO2 SLP184 T01001006
KBOI 120653Z 12007KT 10SM CLR 11/M02 A3010 RMK AO2 SLP183 T01111017 402110050
KBOI 120553Z 13006KT 10SM CLR 12/M04 A3010 RMK AO2 SLP182 T01221044 10211 20117 51005
KBOI 120453Z 00000KT 10SM CLR 14/M05 A3009 RMK AO2 SLP180 T01391050
KBOI 120353Z 17003KT 10SM CLR 15/M06 A3009 RMK AO2 SLP179 T01501056
KBOI 120253Z 31006KT 10SM CLR 18/M07 A3008 RMK AO2 SLP175 T01781067 56002
KBOI 120153Z 30005KT 10SM CLR 20/M08 A3008 RMK AO2 SLP176 T02001078
KBOI 120053Z 31008KT 10SM CLR 21/M09 A3008 RMK AO2 SLP179 T02061094
KBOI 112353Z 29006KT 10SM CLR 21/M06 A3009 RMK AO2 SLP178 T02061061 10211 20156 56011
KBOI 112253Z 30010KT 10SM CLR 21/M08 A3010 RMK AO2 SLP182 T02061078
KBOI 112153Z 26007G18KT 10SM CLR 20/M06 A3011 RMK AO2 SLP188 T02001061